ESGJ

Jönköping Airport

Jönköping, Sweden
METAR ESGJ 170750Z AUTO 29004KT 260V320 9999 OVC003/// M05/M05 Q1013
Observed Flight Rules
Dec-17 @ 07:50 UTC (19 minutes ago) Instrument Flight Rules
Wind Visibility Clouds
290° at 4 knots 10,000+ meters
  • Overcast at 300' AGL
Temperatures Readings
Current -5°C / 23°F
Dewpoint -5°C / 23°F
Humidity 100%
Altimeter 29.91" Hg
Pressure 1013 hPa
Elevation 232
METAR ESGJ 170750Z AUTO 29004KT 260V320 9999 OVC003/// M05/M05 Q1013
Observed Flight Rules
Dec-17 @ 07:50 UTC
(19 minutes ago)
LIFR
Wind Visibility
290° at 4 knots 10,000+ meters
Clouds
  • Overcast at 300' AGL
Temperature Dewpoint
-5°C / 23°F -5°C / 23°F
Humidity Altimeter Pressure
100% 29.91" Hg 1013 hPa